sensor_id;sensor_type;location;lat;lon;timestamp;temperature;humidity
11965;DHT22;6042;41.326;19.826;2022-10-16T00:01:29;15.40;99.90
11965;DHT22;6042;41.326;19.826;2022-10-16T00:03:59;15.40;99.90
11965;DHT22;6042;41.326;19.826;2022-10-16T00:06:30;15.50;99.90
11965;DHT22;6042;41.326;19.826;2022-10-16T00:08:58;15.60;99.90
11965;DHT22;6042;41.326;19.826;2022-10-16T00:11:30;15.60;99.90
11965;DHT22;6042;41.326;19.826;2022-10-16T00:14:02;15.50;99.90
11965;DHT22;6042;41.326;19.826;2022-10-16T00:16:32;15.50;99.90
11965;DHT22;6042;41.326;19.826;2022-10-16T00:19:02;15.40;99.90
11965;DHT22;6042;41.326;19.826;2022-10-16T00:21:31;15.30;99.90
11965;DHT22;6042;41.326;19.826;2022-10-16T00:24:02;15.30;99.90
11965;DHT22;6042;41.326;19.826;2022-10-16T00:26:34;15.40;99.90
11965;DHT22;6042;41.326;19.826;2022-10-16T00:29:04;15.40;99.90
11965;DHT22;6042;41.326;19.826;2022-10-16T00:31:33;15.30;99.90
11965;DHT22;6042;41.326;19.826;2022-10-16T00:34:01;15.30;99.90
11965;DHT22;6042;41.326;19.826;2022-10-16T00:36:30;15.40;99.90
11965;DHT22;6042;41.326;19.826;2022-10-16T00:38:59;15.40;99.90
11965;DHT22;6042;41.326;19.826;2022-10-16T00:41:29;15.40;99.90
11965;DHT22;6042;41.326;19.826;2022-10-16T00:44:00;15.30;99.90
11965;DHT22;6042;41.326;19.826;2022-10-16T00:46:34;15.10;99.90
11965;DHT22;6042;41.326;19.826;2022-10-16T00:49:05;15.10;99.90
11965;DHT22;6042;41.326;19.826;2022-10-16T00:51:36;15.20;99.90
11965;DHT22;6042;41.326;19.826;2022-10-16T00:54:09;15.20;99.90
11965;DHT22;6042;41.326;19.826;2022-10-16T00:56:38;15.00;99.90
11965;DHT22;6042;41.326;19.826;2022-10-16T00:59:14;15.00;99.90
11965;DHT22;6042;41.326;19.826;2022-10-16T01:01:43;15.00;99.90
11965;DHT22;6042;41.326;19.826;2022-10-16T01:04:11;15.00;99.90
11965;DHT22;6042;41.326;19.826;2022-10-16T01:06:46;15.00;99.90
11965;DHT22;6042;41.326;19.826;2022-10-16T01:09:21;15.00;99.90
11965;DHT22;6042;41.326;19.826;2022-10-16T01:11:57;15.00;99.90
11965;DHT22;6042;41.326;19.826;2022-10-16T01:14:39;15.00;99.90
11965;DHT22;6042;41.326;19.826;2022-10-16T01:17:12;15.10;99.90
11965;DHT22;6042;41.326;19.826;2022-10-16T01:19:56;15.10;99.90
11965;DHT22;6042;41.326;19.826;2022-10-16T01:22:39;15.20;99.90
11965;DHT22;6042;41.326;19.826;2022-10-16T01:25:12;15.20;99.90
11965;DHT22;6042;41.326;19.826;2022-10-16T01:27:45;15.20;99.90
11965;DHT22;6042;41.326;19.826;2022-10-16T01:30:18;15.20;99.90
11965;DHT22;6042;41.326;19.826;2022-10-16T01:32:52;15.10;99.90
11965;DHT22;6042;41.326;19.826;2022-10-16T01:35:25;15.20;99.90
11965;DHT22;6042;41.326;19.826;2022-10-16T01:37:59;15.10;99.90
11965;DHT22;6042;41.326;19.826;2022-10-16T01:40:32;15.10;99.90
11965;DHT22;6042;41.326;19.826;2022-10-16T01:43:08;15.10;99.90
11965;DHT22;6042;41.326;19.826;2022-10-16T01:45:37;15.10;99.90
11965;DHT22;6042;41.326;19.826;2022-10-16T01:48:06;15.10;99.90
11965;DHT22;6042;41.326;19.826;2022-10-16T01:50:39;15.00;99.90
11965;DHT22;6042;41.326;19.826;2022-10-16T01:53:12;14.90;99.90
11965;DHT22;6042;41.326;19.826;2022-10-16T01:55:44;15.00;99.90
11965;DHT22;6042;41.326;19.826;2022-10-16T01:58:15;15.00;99.90
11965;DHT22;6042;41.326;19.826;2022-10-16T02:00:45;15.00;99.90
11965;DHT22;6042;41.326;19.826;2022-10-16T02:03:18;15.00;99.90
11965;DHT22;6042;41.326;19.826;2022-10-16T02:05:51;15.00;99.90
11965;DHT22;6042;41.326;19.826;2022-10-16T02:08:23;14.90;99.90
11965;DHT22;6042;41.326;19.826;2022-10-16T02:10:52;14.90;99.90
11965;DHT22;6042;41.326;19.826;2022-10-16T02:13:26;15.00;99.90
11965;DHT22;6042;41.326;19.826;2022-10-16T02:15:56;14.90;99.90
11965;DHT22;6042;41.326;19.826;2022-10-16T02:18:25;14.90;99.90
11965;DHT22;6042;41.326;19.826;2022-10-16T02:20:59;14.90;99.90
11965;DHT22;6042;41.326;19.826;2022-10-16T02:23:35;14.90;99.90
11965;DHT22;6042;41.326;19.826;2022-10-16T02:26:08;15.00;99.90
11965;DHT22;6042;41.326;19.826;2022-10-16T02:28:46;15.00;99.90
11965;DHT22;6042;41.326;19.826;2022-10-16T02:31:24;15.00;99.90
11965;DHT22;6042;41.326;19.826;2022-10-16T02:33:58;15.00;99.90
11965;DHT22;6042;41.326;19.826;2022-10-16T02:36:27;14.90;99.90
11965;DHT22;6042;41.326;19.826;2022-10-16T02:38:56;14.90;99.90
11965;DHT22;6042;41.326;19.826;2022-10-16T02:41:26;14.90;99.90
11965;DHT22;6042;41.326;19.826;2022-10-16T02:43:57;15.00;99.90
11965;DHT22;6042;41.326;19.826;2022-10-16T02:46:25;14.80;99.90
11965;DHT22;6042;41.326;19.826;2022-10-16T02:48:54;14.80;99.90
11965;DHT22;6042;41.326;19.826;2022-10-16T02:51:22;14.80;99.90
11965;DHT22;6042;41.326;19.826;2022-10-16T02:53:51;14.60;99.90
11965;DHT22;6042;41.326;19.826;2022-10-16T02:56:19;14.60;99.90
11965;DHT22;6042;41.326;19.826;2022-10-16T02:58:48;14.60;99.90
11965;DHT22;6042;41.326;19.826;2022-10-16T03:01:18;14.60;99.90
11965;DHT22;6042;41.326;19.826;2022-10-16T03:03:47;14.70;99.90
11965;DHT22;6042;41.326;19.826;2022-10-16T03:06:15;14.60;99.90
11965;DHT22;6042;41.326;19.826;2022-10-16T03:08:44;14.70;99.90
11965;DHT22;6042;41.326;19.826;2022-10-16T03:11:12;14.70;99.90
11965;DHT22;6042;41.326;19.826;2022-10-16T03:13:41;14.70;99.90
11965;DHT22;6042;41.326;19.826;2022-10-16T03:16:09;14.70;99.90
11965;DHT22;6042;41.326;19.826;2022-10-16T03:18:39;14.70;99.90
11965;DHT22;6042;41.326;19.826;2022-10-16T03:21:08;14.60;99.90
11965;DHT22;6042;41.326;19.826;2022-10-16T03:23:36;14.70;99.90
11965;DHT22;6042;41.326;19.826;2022-10-16T03:26:05;14.60;99.90
11965;DHT22;6042;41.326;19.826;2022-10-16T03:28:33;14.50;99.90
11965;DHT22;6042;41.326;19.826;2022-10-16T03:31:02;14.60;99.90
11965;DHT22;6042;41.326;19.826;2022-10-16T03:33:30;14.50;99.90
11965;DHT22;6042;41.326;19.826;2022-10-16T03:36:00;14.50;99.90
11965;DHT22;6042;41.326;19.826;2022-10-16T03:38:29;14.40;99.90
11965;DHT22;6042;41.326;19.826;2022-10-16T03:40:57;14.50;99.90
11965;DHT22;6042;41.326;19.826;2022-10-16T03:43:26;14.50;99.90
11965;DHT22;6042;41.326;19.826;2022-10-16T03:45:54;14.50;99.90
11965;DHT22;6042;41.326;19.826;2022-10-16T03:48:22;14.60;99.90
11965;DHT22;6042;41.326;19.826;2022-10-16T03:50:51;14.50;99.90
11965;DHT22;6042;41.326;19.826;2022-10-16T03:53:21;14.40;99.90
11965;DHT22;6042;41.326;19.826;2022-10-16T03:55:49;14.40;99.90
11965;DHT22;6042;41.326;19.826;2022-10-16T03:58:18;14.50;99.90
11965;DHT22;6042;41.326;19.826;2022-10-16T04:00:47;14.40;99.90
11965;DHT22;6042;41.326;19.826;2022-10-16T04:03:15;14.40;99.90
11965;DHT22;6042;41.326;19.826;2022-10-16T04:05:45;14.40;99.90
11965;DHT22;6042;41.326;19.826;2022-10-16T04:08:14;14.40;99.90
11965;DHT22;6042;41.326;19.826;2022-10-16T04:10:44;14.40;99.90
11965;DHT22;6042;41.326;19.826;2022-10-16T04:13:13;14.40;99.90
11965;DHT22;6042;41.326;19.826;2022-10-16T04:15:41;14.40;99.90
11965;DHT22;6042;41.326;19.826;2022-10-16T04:18:10;14.40;99.90
11965;DHT22;6042;41.326;19.826;2022-10-16T04:20:39;14.40;99.90
11965;DHT22;6042;41.326;19.826;2022-10-16T04:23:07;14.40;99.90
11965;DHT22;6042;41.326;19.826;2022-10-16T04:25:35;14.40;99.90
11965;DHT22;6042;41.326;19.826;2022-10-16T04:28:05;14.30;99.90
11965;DHT22;6042;41.326;19.826;2022-10-16T04:30:34;14.30;99.90
11965;DHT22;6042;41.326;19.826;2022-10-16T04:33:02;14.20;99.90
11965;DHT22;6042;41.326;19.826;2022-10-16T04:35:31;14.20;99.90
11965;DHT22;6042;41.326;19.826;2022-10-16T04:37:59;14.20;99.90
11965;DHT22;6042;41.326;19.826;2022-10-16T04:40:28;14.20;99.90
11965;DHT22;6042;41.326;19.826;2022-10-16T04:42:59;14.20;99.90
11965;DHT22;6042;41.326;19.826;2022-10-16T04:45:29;14.20;99.90
11965;DHT22;6042;41.326;19.826;2022-10-16T04:47:58;14.10;99.90
11965;DHT22;6042;41.326;19.826;2022-10-16T04:50:27;14.10;99.90
11965;DHT22;6042;41.326;19.826;2022-10-16T04:53:05;14.10;99.90
11965;DHT22;6042;41.326;19.826;2022-10-16T04:55:34;14.10;99.90
11965;DHT22;6042;41.326;19.826;2022-10-16T04:58:03;14.10;99.90
11965;DHT22;6042;41.326;19.826;2022-10-16T05:00:34;13.90;99.90
11965;DHT22;6042;41.326;19.826;2022-10-16T05:03:03;14.10;99.90
11965;DHT22;6042;41.326;19.826;2022-10-16T05:05:34;14.10;99.90
11965;DHT22;6042;41.326;19.826;2022-10-16T05:08:03;14.00;99.90
11965;DHT22;6042;41.326;19.826;2022-10-16T05:10:31;14.10;99.90
11965;DHT22;6042;41.326;19.826;2022-10-16T05:13:00;14.10;99.90
11965;DHT22;6042;41.326;19.826;2022-10-16T05:15:28;14.10;99.90
11965;DHT22;6042;41.326;19.826;2022-10-16T05:17:59;14.20;99.90
11965;DHT22;6042;41.326;19.826;2022-10-16T05:20:28;14.20;99.90
11965;DHT22;6042;41.326;19.826;2022-10-16T05:22:56;14.20;99.90
11965;DHT22;6042;41.326;19.826;2022-10-16T05:25:25;14.30;99.90
11965;DHT22;6042;41.326;19.826;2022-10-16T05:27:54;14.30;99.90
11965;DHT22;6042;41.326;19.826;2022-10-16T05:30:23;14.20;99.90
11965;DHT22;6042;41.326;19.826;2022-10-16T05:32:52;14.20;99.90
11965;DHT22;6042;41.326;19.826;2022-10-16T05:35:22;14.20;99.90
11965;DHT22;6042;41.326;19.826;2022-10-16T05:37:50;14.30;99.90
11965;DHT22;6042;41.326;19.826;2022-10-16T05:40:19;14.40;99.90
11965;DHT22;6042;41.326;19.826;2022-10-16T05:42:47;14.40;99.90
11965;DHT22;6042;41.326;19.826;2022-10-16T05:45:16;14.30;99.90
11965;DHT22;6042;41.326;19.826;2022-10-16T05:47:44;14.30;99.90
11965;DHT22;6042;41.326;19.826;2022-10-16T05:50:14;14.40;99.90
11965;DHT22;6042;41.326;19.826;2022-10-16T05:52:44;14.50;99.90
11965;DHT22;6042;41.326;19.826;2022-10-16T05:55:13;14.60;99.90
11965;DHT22;6042;41.326;19.826;2022-10-16T05:57:42;14.70;99.90
11965;DHT22;6042;41.326;19.826;2022-10-16T06:00:11;14.80;99.90
11965;DHT22;6042;41.326;19.826;2022-10-16T06:02:40;14.80;99.90
11965;DHT22;6042;41.326;19.826;2022-10-16T06:05:09;14.90;99.90
11965;DHT22;6042;41.326;19.826;2022-10-16T06:07:37;14.80;99.90
11965;DHT22;6042;41.326;19.826;2022-10-16T06:10:09;14.90;99.90
11965;DHT22;6042;41.326;19.826;2022-10-16T06:12:37;15.00;99.90
11965;DHT22;6042;41.326;19.826;2022-10-16T06:15:06;15.10;99.90
11965;DHT22;6042;41.326;19.826;2022-10-16T06:17:35;15.10;99.90
11965;DHT22;6042;41.326;19.826;2022-10-16T06:20:04;15.20;99.90
11965;DHT22;6042;41.326;19.826;2022-10-16T06:22:32;15.20;99.90
11965;DHT22;6042;41.326;19.826;2022-10-16T06:25:01;15.40;99.90
11965;DHT22;6042;41.326;19.826;2022-10-16T06:27:30;15.50;99.90
11965;DHT22;6042;41.326;19.826;2022-10-16T06:29:59;15.60;99.90
11965;DHT22;6042;41.326;19.826;2022-10-16T06:32:27;15.70;99.90
11965;DHT22;6042;41.326;19.826;2022-10-16T06:34:57;15.70;99.90
11965;DHT22;6042;41.326;19.826;2022-10-16T06:37:26;15.90;99.90
11965;DHT22;6042;41.326;19.826;2022-10-16T06:39:55;16.00;99.90
11965;DHT22;6042;41.326;19.826;2022-10-16T06:42:23;16.00;99.90
11965;DHT22;6042;41.326;19.826;2022-10-16T06:44:54;16.20;99.90
11965;DHT22;6042;41.326;19.826;2022-10-16T06:47:22;16.20;99.90
11965;DHT22;6042;41.326;19.826;2022-10-16T06:49:51;16.30;99.90
11965;DHT22;6042;41.326;19.826;2022-10-16T06:52:20;16.30;99.90
11965;DHT22;6042;41.326;19.826;2022-10-16T06:54:49;16.40;99.90
11965;DHT22;6042;41.326;19.826;2022-10-16T06:57:18;16.50;99.90
11965;DHT22;6042;41.326;19.826;2022-10-16T06:59:46;16.60;99.90
11965;DHT22;6042;41.326;19.826;2022-10-16T07:02:22;16.70;99.90
11965;DHT22;6042;41.326;19.826;2022-10-16T07:04:51;16.90;99.90
11965;DHT22;6042;41.326;19.826;2022-10-16T07:07:20;17.00;99.90
11965;DHT22;6042;41.326;19.826;2022-10-16T07:09:51;17.00;99.90
11965;DHT22;6042;41.326;19.826;2022-10-16T07:12:20;17.10;99.90
11965;DHT22;6042;41.326;19.826;2022-10-16T07:14:49;17.20;99.90
11965;DHT22;6042;41.326;19.826;2022-10-16T07:17:19;17.30;99.90
11965;DHT22;6042;41.326;19.826;2022-10-16T07:19:49;17.30;99.90
11965;DHT22;6042;41.326;19.826;2022-10-16T07:22:19;17.40;99.90
11965;DHT22;6042;41.326;19.826;2022-10-16T07:27:20;17.60;99.90
11965;DHT22;6042;41.326;19.826;2022-10-16T07:29:51;17.60;99.90
11965;DHT22;6042;41.326;19.826;2022-10-16T07:32:19;17.80;99.90
11965;DHT22;6042;41.326;19.826;2022-10-16T07:34:49;18.00;99.90
11965;DHT22;6042;41.326;19.826;2022-10-16T07:37:18;18.10;99.90
11965;DHT22;6042;41.326;19.826;2022-10-16T07:39:46;18.20;99.90
11965;DHT22;6042;41.326;19.826;2022-10-16T07:42:15;18.30;99.90
11965;DHT22;6042;41.326;19.826;2022-10-16T07:44:43;18.30;99.90
11965;DHT22;6042;41.326;19.826;2022-10-16T07:47:11;18.40;99.90
11965;DHT22;6042;41.326;19.826;2022-10-16T07:49:40;18.60;99.90
11965;DHT22;6042;41.326;19.826;2022-10-16T07:52:10;18.60;99.90
11965;DHT22;6042;41.326;19.826;2022-10-16T07:54:38;18.70;99.90
11965;DHT22;6042;41.326;19.826;2022-10-16T07:57:07;18.80;99.90
11965;DHT22;6042;41.326;19.826;2022-10-16T07:59:35;18.90;99.90
11965;DHT22;6042;41.326;19.826;2022-10-16T08:02:04;19.10;99.90
11965;DHT22;6042;41.326;19.826;2022-10-16T08:04:32;19.10;99.90
11965;DHT22;6042;41.326;19.826;2022-10-16T08:07:01;19.20;99.90
11965;DHT22;6042;41.326;19.826;2022-10-16T08:09:31;19.30;99.90
11965;DHT22;6042;41.326;19.826;2022-10-16T08:11:59;19.40;99.90
11965;DHT22;6042;41.326;19.826;2022-10-16T08:14:28;19.50;99.90
11965;DHT22;6042;41.326;19.826;2022-10-16T08:16:57;19.40;99.90
11965;DHT22;6042;41.326;19.826;2022-10-16T08:19:25;19.40;99.90
11965;DHT22;6042;41.326;19.826;2022-10-16T08:21:54;19.50;99.90
11965;DHT22;6042;41.326;19.826;2022-10-16T08:24:22;19.50;99.90
11965;DHT22;6042;41.326;19.826;2022-10-16T08:26:53;19.60;99.90
11965;DHT22;6042;41.326;19.826;2022-10-16T08:29:22;19.70;99.90
11965;DHT22;6042;41.326;19.826;2022-10-16T08:31:50;19.80;99.90
11965;DHT22;6042;41.326;19.826;2022-10-16T08:34:20;19.80;99.90
11965;DHT22;6042;41.326;19.826;2022-10-16T08:36:48;19.80;99.90
11965;DHT22;6042;41.326;19.826;2022-10-16T08:39:17;19.90;99.90
11965;DHT22;6042;41.326;19.826;2022-10-16T08:42:12;20.00;99.90
11965;DHT22;6042;41.326;19.826;2022-10-16T08:45:02;20.20;99.90
11965;DHT22;6042;41.326;19.826;2022-10-16T08:47:43;20.30;99.90
11965;DHT22;6042;41.326;19.826;2022-10-16T08:50:19;20.40;99.90
11965;DHT22;6042;41.326;19.826;2022-10-16T08:52:50;20.50;99.90
11965;DHT22;6042;41.326;19.826;2022-10-16T08:55:31;20.50;99.90
11965;DHT22;6042;41.326;19.826;2022-10-16T08:58:12;20.60;99.90
11965;DHT22;6042;41.326;19.826;2022-10-16T09:00:43;20.60;99.90
11965;DHT22;6042;41.326;19.826;2022-10-16T09:03:21;20.60;99.90
11965;DHT22;6042;41.326;19.826;2022-10-16T09:06:02;20.70;99.90
11965;DHT22;6042;41.326;19.826;2022-10-16T09:08:39;20.70;99.90
11965;DHT22;6042;41.326;19.826;2022-10-16T09:11:13;20.80;99.90
11965;DHT22;6042;41.326;19.826;2022-10-16T09:13:53;20.90;99.90
11965;DHT22;6042;41.326;19.826;2022-10-16T09:16:28;20.90;99.90
11965;DHT22;6042;41.326;19.826;2022-10-16T09:19:02;21.00;99.90
11965;DHT22;6042;41.326;19.826;2022-10-16T09:21:37;21.00;99.80
11965;DHT22;6042;41.326;19.826;2022-10-16T09:24:10;21.00;99.90
11965;DHT22;6042;41.326;19.826;2022-10-16T09:26:40;21.00;99.60
11965;DHT22;6042;41.326;19.826;2022-10-16T09:29:12;21.00;99.90
11965;DHT22;6042;41.326;19.826;2022-10-16T09:31:41;20.90;99.90
11965;DHT22;6042;41.326;19.826;2022-10-16T09:34:20;20.90;99.90
11965;DHT22;6042;41.326;19.826;2022-10-16T09:36:52;21.00;99.90
11965;DHT22;6042;41.326;19.826;2022-10-16T09:39:21;21.10;99.90
11965;DHT22;6042;41.326;19.826;2022-10-16T09:41:49;21.20;99.90
11965;DHT22;6042;41.326;19.826;2022-10-16T09:44:22;21.20;99.90
11965;DHT22;6042;41.326;19.826;2022-10-16T09:47:01;21.20;99.80
11965;DHT22;6042;41.326;19.826;2022-10-16T09:49:32;21.30;99.60
11965;DHT22;6042;41.326;19.826;2022-10-16T09:52:04;21.30;99.90
11965;DHT22;6042;41.326;19.826;2022-10-16T09:54:35;21.30;99.80
11965;DHT22;6042;41.326;19.826;2022-10-16T09:57:05;21.40;99.60
11965;DHT22;6042;41.326;19.826;2022-10-16T09:59:46;21.60;98.80
11965;DHT22;6042;41.326;19.826;2022-10-16T10:02:17;21.60;98.80
11965;DHT22;6042;41.326;19.826;2022-10-16T10:04:50;21.70;98.70
11965;DHT22;6042;41.326;19.826;2022-10-16T10:07:24;21.70;98.60
11965;DHT22;6042;41.326;19.826;2022-10-16T10:09:55;21.80;99.90
11965;DHT22;6042;41.326;19.826;2022-10-16T10:12:25;21.90;98.40
11965;DHT22;6042;41.326;19.826;2022-10-16T10:14:58;22.00;97.80
11965;DHT22;6042;41.326;19.826;2022-10-16T10:17:32;22.00;97.90
11965;DHT22;6042;41.326;19.826;2022-10-16T10:20:15;22.00;98.20
11965;DHT22;6042;41.326;19.826;2022-10-16T10:22:45;22.10;98.90
11965;DHT22;6042;41.326;19.826;2022-10-16T10:25:34;22.40;97.90
11965;DHT22;6042;41.326;19.826;2022-10-16T10:28:52;22.60;97.10
11965;DHT22;6042;41.326;19.826;2022-10-16T10:31:29;22.60;97.10
11965;DHT22;6042;41.326;19.826;2022-10-16T10:34:18;22.60;97.30
11965;DHT22;6042;41.326;19.826;2022-10-16T10:36:57;22.50;97.70
11965;DHT22;6042;41.326;19.826;2022-10-16T10:39:36;22.50;96.90
11965;DHT22;6042;41.326;19.826;2022-10-16T10:42:15;22.60;97.10
11965;DHT22;6042;41.326;19.826;2022-10-16T10:45:11;22.70;97.20
11965;DHT22;6042;41.326;19.826;2022-10-16T10:47:49;22.90;96.50
11965;DHT22;6042;41.326;19.826;2022-10-16T10:50:25;23.00;96.10
11965;DHT22;6042;41.326;19.826;2022-10-16T10:53:02;22.90;95.50
11965;DHT22;6042;41.326;19.826;2022-10-16T10:55:40;22.90;95.20
11965;DHT22;6042;41.326;19.826;2022-10-16T10:58:50;23.10;95.30
11965;DHT22;6042;41.326;19.826;2022-10-16T11:01:26;23.20;95.40
11965;DHT22;6042;41.326;19.826;2022-10-16T11:04:16;23.40;94.60
11965;DHT22;6042;41.326;19.826;2022-10-16T11:06:51;23.60;94.70
11965;DHT22;6042;41.326;19.826;2022-10-16T11:09:23;23.80;94.30
11965;DHT22;6042;41.326;19.826;2022-10-16T11:11:56;24.00;94.80
11965;DHT22;6042;41.326;19.826;2022-10-16T11:14:28;24.00;94.30
11965;DHT22;6042;41.326;19.826;2022-10-16T11:17:02;24.00;94.20
11965;DHT22;6042;41.326;19.826;2022-10-16T11:19:41;23.80;94.30
11965;DHT22;6042;41.326;19.826;2022-10-16T11:22:16;23.90;94.20
11965;DHT22;6042;41.326;19.826;2022-10-16T11:24:50;23.80;94.10
11965;DHT22;6042;41.326;19.826;2022-10-16T11:27:33;23.80;95.00
11965;DHT22;6042;41.326;19.826;2022-10-16T11:30:12;23.70;95.30
11965;DHT22;6042;41.326;19.826;2022-10-16T11:32:58;23.90;95.40
11965;DHT22;6042;41.326;19.826;2022-10-16T11:35:39;24.00;94.30
11965;DHT22;6042;41.326;19.826;2022-10-16T11:38:16;24.10;94.30
11965;DHT22;6042;41.326;19.826;2022-10-16T11:40:47;24.20;94.50
11965;DHT22;6042;41.326;19.826;2022-10-16T11:43:21;24.30;94.80
11965;DHT22;6042;41.326;19.826;2022-10-16T11:45:54;24.20;94.10
11965;DHT22;6042;41.326;19.826;2022-10-16T11:48:29;24.10;94.40
11965;DHT22;6042;41.326;19.826;2022-10-16T11:51:11;23.90;94.70
11965;DHT22;6042;41.326;19.826;2022-10-16T11:53:47;23.90;94.80
11965;DHT22;6042;41.326;19.826;2022-10-16T11:56:18;24.00;95.00
11965;DHT22;6042;41.326;19.826;2022-10-16T11:58:55;24.10;95.10
11965;DHT22;6042;41.326;19.826;2022-10-16T12:01:30;24.30;94.10
11965;DHT22;6042;41.326;19.826;2022-10-16T12:04:11;24.10;93.80
11965;DHT22;6042;41.326;19.826;2022-10-16T12:06:45;23.90;94.50
11965;DHT22;6042;41.326;19.826;2022-10-16T12:09:20;24.00;94.10
11965;DHT22;6042;41.326;19.826;2022-10-16T12:11:49;24.20;93.90
11965;DHT22;6042;41.326;19.826;2022-10-16T12:14:34;24.30;93.60
11965;DHT22;6042;41.326;19.826;2022-10-16T12:17:25;24.30;93.40
11965;DHT22;6042;41.326;19.826;2022-10-16T12:20:00;24.10;93.20
11965;DHT22;6042;41.326;19.826;2022-10-16T12:22:31;24.20;93.00
11965;DHT22;6042;41.326;19.826;2022-10-16T12:25:20;24.30;93.10
11965;DHT22;6042;41.326;19.826;2022-10-16T12:27:58;24.40;92.90
11965;DHT22;6042;41.326;19.826;2022-10-16T12:30:29;24.50;92.60
11965;DHT22;6042;41.326;19.826;2022-10-16T12:33:04;24.40;92.80
11965;DHT22;6042;41.326;19.826;2022-10-16T12:35:35;24.40;92.60
11965;DHT22;6042;41.326;19.826;2022-10-16T12:38:21;24.50;92.20
11965;DHT22;6042;41.326;19.826;2022-10-16T12:40:57;24.50;92.00
11965;DHT22;6042;41.326;19.826;2022-10-16T12:43:36;24.40;91.90
11965;DHT22;6042;41.326;19.826;2022-10-16T12:46:37;24.20;92.50
11965;DHT22;6042;41.326;19.826;2022-10-16T12:49:19;24.00;92.60
11965;DHT22;6042;41.326;19.826;2022-10-16T12:51:49;24.40;92.60
11965;DHT22;6042;41.326;19.826;2022-10-16T12:54:28;24.70;92.00
11965;DHT22;6042;41.326;19.826;2022-10-16T12:57:18;24.60;92.10
11965;DHT22;6042;41.326;19.826;2022-10-16T12:59:59;24.40;92.20
11965;DHT22;6042;41.326;19.826;2022-10-16T13:03:01;24.40;92.60
11965;DHT22;6042;41.326;19.826;2022-10-16T13:05:46;24.50;92.90
11965;DHT22;6042;41.326;19.826;2022-10-16T13:08:41;24.30;92.80
11965;DHT22;6042;41.326;19.826;2022-10-16T13:11:23;24.00;93.10
11965;DHT22;6042;41.326;19.826;2022-10-16T13:14:09;24.10;93.00
11965;DHT22;6042;41.326;19.826;2022-10-16T13:16:50;24.00;93.00
11965;DHT22;6042;41.326;19.826;2022-10-16T13:19:26;23.70;93.70
11965;DHT22;6042;41.326;19.826;2022-10-16T13:22:02;23.60;93.90
11965;DHT22;6042;41.326;19.826;2022-10-16T13:24:51;23.70;93.70
11965;DHT22;6042;41.326;19.826;2022-10-16T13:27:29;23.70;94.30
11965;DHT22;6042;41.326;19.826;2022-10-16T13:30:02;23.60;94.80
11965;DHT22;6042;41.326;19.826;2022-10-16T13:32:38;23.60;95.30
11965;DHT22;6042;41.326;19.826;2022-10-16T13:35:20;23.30;95.80
11965;DHT22;6042;41.326;19.826;2022-10-16T13:37:49;23.00;96.20
11965;DHT22;6042;41.326;19.826;2022-10-16T13:40:23;22.80;96.80
11965;DHT22;6042;41.326;19.826;2022-10-16T13:42:54;22.80;97.20
11965;DHT22;6042;41.326;19.826;2022-10-16T13:45:24;22.80;97.40
11965;DHT22;6042;41.326;19.826;2022-10-16T13:48:02;22.70;97.50
11965;DHT22;6042;41.326;19.826;2022-10-16T13:50:30;22.60;97.60
11965;DHT22;6042;41.326;19.826;2022-10-16T13:53:05;22.50;97.90
11965;DHT22;6042;41.326;19.826;2022-10-16T13:55:34;22.60;97.90
11965;DHT22;6042;41.326;19.826;2022-10-16T13:58:13;22.50;97.70
11965;DHT22;6042;41.326;19.826;2022-10-16T14:00:54;22.40;97.60
11965;DHT22;6042;41.326;19.826;2022-10-16T14:03:24;22.40;97.40
11965;DHT22;6042;41.326;19.826;2022-10-16T14:05:54;22.50;97.50
11965;DHT22;6042;41.326;19.826;2022-10-16T14:08:25;22.50;97.70
11965;DHT22;6042;41.326;19.826;2022-10-16T14:10:56;22.40;97.60
11965;DHT22;6042;41.326;19.826;2022-10-16T14:13:32;22.30;97.80
11965;DHT22;6042;41.326;19.826;2022-10-16T14:16:06;22.10;98.00
11965;DHT22;6042;41.326;19.826;2022-10-16T14:18:37;22.10;97.70
11965;DHT22;6042;41.326;19.826;2022-10-16T14:21:11;22.20;97.80
11965;DHT22;6042;41.326;19.826;2022-10-16T14:23:42;22.00;98.00
11965;DHT22;6042;41.326;19.826;2022-10-16T14:26:16;22.00;98.20
11965;DHT22;6042;41.326;19.826;2022-10-16T14:28:47;22.00;98.50
11965;DHT22;6042;41.326;19.826;2022-10-16T14:31:30;22.00;99.20
11965;DHT22;6042;41.326;19.826;2022-10-16T14:33:59;21.80;99.70
11965;DHT22;6042;41.326;19.826;2022-10-16T14:36:28;21.90;99.90
11965;DHT22;6042;41.326;19.826;2022-10-16T14:39:05;21.80;99.90
11965;DHT22;6042;41.326;19.826;2022-10-16T14:41:43;21.80;99.90
11965;DHT22;6042;41.326;19.826;2022-10-16T14:44:14;21.70;99.90
11965;DHT22;6042;41.326;19.826;2022-10-16T14:46:43;21.70;99.90
11965;DHT22;6042;41.326;19.826;2022-10-16T14:49:17;21.60;99.90
11965;DHT22;6042;41.326;19.826;2022-10-16T14:51:47;21.60;99.90
11965;DHT22;6042;41.326;19.826;2022-10-16T14:54:17;21.60;99.90
11965;DHT22;6042;41.326;19.826;2022-10-16T14:56:48;21.60;99.90
11965;DHT22;6042;41.326;19.826;2022-10-16T14:59:31;21.40;99.90
11965;DHT22;6042;41.326;19.826;2022-10-16T15:02:01;21.40;99.90
11965;DHT22;6042;41.326;19.826;2022-10-16T15:04:37;21.30;99.90
11965;DHT22;6042;41.326;19.826;2022-10-16T15:07:07;21.30;99.90
11965;DHT22;6042;41.326;19.826;2022-10-16T15:09:36;21.30;99.80
11965;DHT22;6042;41.326;19.826;2022-10-16T15:12:04;21.30;98.80
11965;DHT22;6042;41.326;19.826;2022-10-16T15:14:34;21.00;99.60
11965;DHT22;6042;41.326;19.826;2022-10-16T15:17:03;20.90;99.90
11965;DHT22;6042;41.326;19.826;2022-10-16T15:19:31;20.90;99.90
11965;DHT22;6042;41.326;19.826;2022-10-16T15:22:01;20.80;99.90
11965;DHT22;6042;41.326;19.826;2022-10-16T15:24:29;20.80;99.90
11965;DHT22;6042;41.326;19.826;2022-10-16T15:26:58;20.80;99.90
11965;DHT22;6042;41.326;19.826;2022-10-16T15:29:26;20.70;99.90
11965;DHT22;6042;41.326;19.826;2022-10-16T15:31:56;20.70;99.90
11965;DHT22;6042;41.326;19.826;2022-10-16T15:34:24;20.60;99.90
11965;DHT22;6042;41.326;19.826;2022-10-16T15:36:53;20.60;99.90
11965;DHT22;6042;41.326;19.826;2022-10-16T15:39:23;20.60;99.90
11965;DHT22;6042;41.326;19.826;2022-10-16T15:41:52;20.50;99.90
11965;DHT22;6042;41.326;19.826;2022-10-16T15:44:21;20.50;99.90
11965;DHT22;6042;41.326;19.826;2022-10-16T15:46:56;20.50;99.90
11965;DHT22;6042;41.326;19.826;2022-10-16T15:49:25;20.40;99.90
11965;DHT22;6042;41.326;19.826;2022-10-16T15:51:53;20.40;99.90
11965;DHT22;6042;41.326;19.826;2022-10-16T15:54:22;20.40;99.90
11965;DHT22;6042;41.326;19.826;2022-10-16T15:56:50;20.40;99.90
11965;DHT22;6042;41.326;19.826;2022-10-16T15:59:20;20.30;99.90
11965;DHT22;6042;41.326;19.826;2022-10-16T16:01:48;20.20;99.90
11965;DHT22;6042;41.326;19.826;2022-10-16T16:04:18;20.20;99.90
11965;DHT22;6042;41.326;19.826;2022-10-16T16:07:07;20.10;99.90